createdAt,value
2023-08-23T00:01:41.468Z,16.24
2023-08-23T00:04:09.653Z,16.21
2023-08-23T00:06:37.912Z,16.18
2023-08-23T00:09:06.848Z,16.15
2023-08-23T00:11:35.000Z,16.13
2023-08-23T00:14:04.164Z,16.11
2023-08-23T00:16:32.497Z,16.11
2023-08-23T00:19:00.826Z,16.09
2023-08-23T00:21:31.665Z,16.05
2023-08-23T00:23:59.859Z,16.03
2023-08-23T00:26:28.113Z,16.00
2023-08-23T00:28:56.481Z,15.99
2023-08-23T00:31:24.561Z,16.00
2023-08-23T00:33:52.665Z,16.01
2023-08-23T00:36:20.694Z,16.00
2023-08-23T00:38:48.881Z,15.97
2023-08-23T00:41:17.153Z,15.95
2023-08-23T00:43:45.221Z,15.94
2023-08-23T00:46:15.085Z,15.93
2023-08-23T00:48:44.947Z,15.91
2023-08-23T00:51:15.262Z,15.91
2023-08-23T00:53:43.479Z,15.90
2023-08-23T00:56:13.062Z,15.89
2023-08-23T00:58:41.474Z,15.88
2023-08-23T01:01:09.701Z,15.89
2023-08-23T01:03:38.181Z,15.89
2023-08-23T01:06:27.648Z,15.87
2023-08-23T01:09:25.856Z,15.83
2023-08-23T01:12:20.208Z,15.75
2023-08-23T01:14:54.374Z,15.69
2023-08-23T01:17:23.927Z,15.68
2023-08-23T01:19:53.408Z,15.66
2023-08-23T01:22:24.791Z,15.65
2023-08-23T01:24:54.698Z,15.63
2023-08-23T01:27:22.870Z,15.62
2023-08-23T01:29:50.964Z,15.62
2023-08-23T01:32:32.543Z,15.60
2023-08-23T01:35:24.050Z,15.56
2023-08-23T01:37:56.213Z,15.51
2023-08-23T01:40:25.144Z,15.48
2023-08-23T01:42:54.909Z,15.47
2023-08-23T01:45:22.980Z,15.45
2023-08-23T01:47:51.618Z,15.44
2023-08-23T01:50:19.849Z,15.43
2023-08-23T01:52:47.962Z,15.44
2023-08-23T01:55:19.768Z,15.44
2023-08-23T01:57:48.735Z,15.43
2023-08-23T02:00:17.346Z,15.40
2023-08-23T02:02:45.557Z,15.33
2023-08-23T02:05:13.857Z,15.27
2023-08-23T02:07:42.067Z,15.24
2023-08-23T02:10:10.450Z,15.22
2023-08-23T02:12:38.545Z,15.21
2023-08-23T02:15:07.502Z,15.19
2023-08-23T02:17:35.596Z,15.18
2023-08-23T02:20:04.827Z,15.15
2023-08-23T02:22:33.147Z,15.11
2023-08-23T02:25:01.331Z,15.09
2023-08-23T02:27:29.589Z,15.08
2023-08-23T02:29:58.077Z,15.08
2023-08-23T02:32:26.594Z,15.05
2023-08-23T02:34:54.838Z,15.02
2023-08-23T02:37:22.843Z,15.01
2023-08-23T02:39:50.828Z,14.97
2023-08-23T02:42:18.843Z,14.95
2023-08-23T02:44:46.922Z,14.93
2023-08-23T02:47:15.187Z,14.91
2023-08-23T02:49:44.179Z,14.88
2023-08-23T02:52:12.300Z,14.87
2023-08-23T02:54:40.931Z,14.87
2023-08-23T02:57:09.124Z,14.85
2023-08-23T02:59:37.292Z,14.83
2023-08-23T03:02:05.670Z,14.82
2023-08-23T03:04:34.036Z,14.79
2023-08-23T03:07:01.988Z,14.77
2023-08-23T03:09:30.335Z,14.76
2023-08-23T03:11:59.599Z,14.76
2023-08-23T03:14:27.746Z,14.75
2023-08-23T03:16:56.039Z,14.75
2023-08-23T03:19:24.215Z,14.73
2023-08-23T03:21:52.326Z,14.71
2023-08-23T03:24:20.550Z,14.69
2023-08-23T03:26:49.230Z,14.68
2023-08-23T03:29:18.425Z,14.66
2023-08-23T03:31:47.427Z,14.67
2023-08-23T03:34:17.125Z,14.64
2023-08-23T03:36:45.347Z,14.61
2023-08-23T03:39:13.481Z,14.60
2023-08-23T03:41:41.645Z,14.61
2023-08-23T03:44:09.819Z,14.62
2023-08-23T03:46:38.076Z,14.62
2023-08-23T03:49:06.268Z,14.63
2023-08-23T03:51:34.462Z,14.64
2023-08-23T03:54:02.932Z,14.64
2023-08-23T03:56:32.215Z,14.62
2023-08-23T03:59:00.904Z,14.58
2023-08-23T04:01:29.136Z,14.59
2023-08-23T04:03:57.511Z,14.61
2023-08-23T04:06:25.831Z,14.62
2023-08-23T04:08:53.907Z,14.63
2023-08-23T04:11:21.975Z,14.66
2023-08-23T04:13:50.063Z,14.70
2023-08-23T04:16:18.249Z,14.73
2023-08-23T04:18:46.530Z,14.77
2023-08-23T04:21:14.672Z,14.80
2023-08-23T04:23:42.985Z,14.82
2023-08-23T04:26:11.215Z,14.86
2023-08-23T04:28:39.292Z,14.88
2023-08-23T04:31:07.358Z,14.92
2023-08-23T04:33:45.648Z,14.94
2023-08-23T04:36:13.839Z,14.98
2023-08-23T04:38:42.024Z,15.02
2023-08-23T04:41:10.597Z,15.07
2023-08-23T04:43:38.763Z,15.13
2023-08-23T04:46:08.574Z,15.20
2023-08-23T04:48:37.189Z,15.27
2023-08-23T04:51:10.326Z,15.42
2023-08-23T04:53:39.109Z,15.90
2023-08-23T04:56:08.048Z,16.53
2023-08-23T04:58:36.353Z,17.31
2023-08-23T05:01:05.975Z,18.14
2023-08-23T05:03:36.265Z,18.99
2023-08-23T05:06:04.512Z,19.77
2023-08-23T05:08:35.441Z,20.36
2023-08-23T05:11:11.340Z,20.55
2023-08-23T05:13:39.570Z,20.64
2023-08-23T05:16:07.840Z,20.72
2023-08-23T05:18:36.326Z,20.79
2023-08-23T05:21:04.857Z,20.92
2023-08-23T05:23:33.089Z,21.04
2023-08-23T05:26:04.042Z,21.27
2023-08-23T05:28:33.903Z,21.70
2023-08-23T05:31:04.412Z,22.03
2023-08-23T05:33:34.116Z,22.65
2023-08-23T05:36:04.695Z,23.38
2023-08-23T05:38:32.977Z,24.04
2023-08-23T05:41:02.345Z,24.59
2023-08-23T05:43:30.402Z,25.15
2023-08-23T05:45:58.939Z,25.56
2023-08-23T05:48:27.446Z,25.71
2023-08-23T05:50:55.707Z,25.46
2023-08-23T05:53:23.922Z,25.05
2023-08-23T05:55:52.281Z,24.59
2023-08-23T05:58:20.410Z,24.21
2023-08-23T06:00:49.837Z,23.96
2023-08-23T06:03:18.461Z,23.66
2023-08-23T06:05:47.127Z,23.52
2023-08-23T06:08:15.344Z,23.57
2023-08-23T06:10:43.333Z,23.65
2023-08-23T06:13:11.336Z,23.68
2023-08-23T06:15:39.475Z,23.55
2023-08-23T06:18:07.663Z,23.45
2023-08-23T06:20:35.752Z,23.56
2023-08-23T06:23:04.206Z,24.02
2023-08-23T06:25:32.347Z,24.52
2023-08-23T06:28:00.559Z,24.94
2023-08-23T06:30:28.736Z,25.17
2023-08-23T06:32:57.423Z,25.04
2023-08-23T06:35:27.670Z,24.84
2023-08-23T06:37:55.875Z,24.68
2023-08-23T06:40:24.134Z,24.58
2023-08-23T06:42:52.333Z,24.51
2023-08-23T06:45:20.348Z,24.38
2023-08-23T06:47:48.871Z,24.24
2023-08-23T06:50:17.394Z,24.10
2023-08-23T06:52:46.207Z,23.97
2023-08-23T06:55:14.526Z,23.78
2023-08-23T06:57:42.646Z,23.61
2023-08-23T07:00:11.621Z,23.53
2023-08-23T07:02:40.140Z,23.48
2023-08-23T07:05:09.616Z,23.42
2023-08-23T07:07:37.672Z,23.38
2023-08-23T07:10:18.029Z,23.35
2023-08-23T07:12:54.255Z,23.29
2023-08-23T07:15:22.538Z,23.26
2023-08-23T07:17:50.899Z,23.26
2023-08-23T07:20:19.399Z,23.25
2023-08-23T07:22:47.569Z,23.24
2023-08-23T07:25:15.844Z,23.24
2023-08-23T07:27:44.344Z,23.24
2023-08-23T07:30:13.589Z,23.23
2023-08-23T07:32:41.798Z,23.23
2023-08-23T07:35:10.711Z,23.24
2023-08-23T07:37:39.705Z,23.27
2023-08-23T07:40:10.874Z,23.29
2023-08-23T07:42:39.397Z,23.31
2023-08-23T07:45:09.115Z,23.32
2023-08-23T07:47:37.844Z,23.33
2023-08-23T07:50:07.300Z,23.38
2023-08-23T07:52:36.923Z,23.43
2023-08-23T07:55:06.570Z,23.48
2023-08-23T07:57:34.890Z,23.53
2023-08-23T08:00:03.396Z,23.53
2023-08-23T08:02:34.700Z,23.60
2023-08-23T08:05:03.216Z,23.64
2023-08-23T08:08:01.376Z,23.69
2023-08-23T08:10:21.371Z,23.73
2023-08-23T08:12:49.746Z,23.81
2023-08-23T08:15:17.932Z,23.89
2023-08-23T08:17:46.523Z,24.01
2023-08-23T08:20:15.068Z,24.14
2023-08-23T08:22:43.654Z,24.22
2023-08-23T08:25:14.129Z,24.30
2023-08-23T08:27:43.044Z,24.34
2023-08-23T08:30:11.866Z,24.40
2023-08-23T08:32:41.985Z,24.45
2023-08-23T08:35:10.848Z,24.50
2023-08-23T08:37:39.145Z,24.57
2023-08-23T08:40:09.034Z,24.64
2023-08-23T08:42:37.742Z,24.69
2023-08-23T08:45:07.433Z,24.78
2023-08-23T08:47:35.852Z,24.86
2023-08-23T08:50:04.512Z,24.95
2023-08-23T08:52:32.847Z,25.03
2023-08-23T08:55:02.424Z,25.11
2023-08-23T08:57:33.132Z,25.24
2023-08-23T09:00:02.419Z,25.37
2023-08-23T09:02:32.844Z,25.50
2023-08-23T09:05:02.957Z,25.65
2023-08-23T09:07:31.659Z,25.83
2023-08-23T09:09:59.792Z,26.03
2023-08-23T09:12:27.824Z,26.23
2023-08-23T09:14:56.180Z,26.38
2023-08-23T09:17:24.803Z,26.52
2023-08-23T09:19:53.160Z,26.64
2023-08-23T09:22:22.897Z,26.74
2023-08-23T09:24:51.247Z,26.85
2023-08-23T09:27:36.785Z,26.92
2023-08-23T09:30:07.493Z,26.92
2023-08-23T09:32:36.984Z,26.92
2023-08-23T09:35:15.874Z,26.94
2023-08-23T09:37:46.242Z,26.93
2023-08-23T09:40:19.173Z,26.97
2023-08-23T09:42:48.110Z,27.01
2023-08-23T09:45:21.758Z,27.02
2023-08-23T09:47:56.510Z,27.02
2023-08-23T09:50:26.013Z,26.98
2023-08-23T09:53:11.686Z,26.98
2023-08-23T09:55:40.782Z,26.96
2023-08-23T09:58:09.932Z,26.98
2023-08-23T10:00:39.151Z,27.02
2023-08-23T10:03:08.898Z,27.06
2023-08-23T10:05:37.508Z,27.13
2023-08-23T10:08:05.655Z,27.17
2023-08-23T10:10:34.319Z,27.16
2023-08-23T10:13:06.757Z,27.18
2023-08-23T10:15:38.973Z,27.24
2023-08-23T10:18:13.055Z,27.25
2023-08-23T10:20:42.678Z,27.22
2023-08-23T10:23:16.905Z,27.20
2023-08-23T10:25:46.392Z,27.17
2023-08-23T10:28:17.633Z,27.15
2023-08-23T10:30:52.628Z,27.17
2023-08-23T10:33:22.405Z,27.22
2023-08-23T10:35:50.540Z,27.32
2023-08-23T10:38:18.582Z,27.41
2023-08-23T10:40:48.812Z,27.47
2023-08-23T10:43:21.646Z,27.47
2023-08-23T10:46:10.321Z,27.41
2023-08-23T10:48:40.562Z,27.20
2023-08-23T10:51:08.759Z,27.02
2023-08-23T10:53:36.805Z,26.89
2023-08-23T10:56:05.112Z,26.80
2023-08-23T10:58:34.454Z,26.71
2023-08-23T11:01:03.633Z,26.67
2023-08-23T11:03:33.511Z,26.62
2023-08-23T11:06:02.656Z,26.57
2023-08-23T11:08:31.220Z,26.56
2023-08-23T11:10:59.676Z,26.57
2023-08-23T11:13:27.742Z,26.56
2023-08-23T11:15:56.790Z,26.55
2023-08-23T11:18:25.455Z,26.49
2023-08-23T11:20:54.412Z,26.40
2023-08-23T11:23:22.396Z,26.32
2023-08-23T11:25:50.424Z,26.21
2023-08-23T11:28:20.803Z,26.11
2023-08-23T11:30:50.781Z,26.02
2023-08-23T11:33:19.128Z,25.98
2023-08-23T11:35:47.293Z,25.95
2023-08-23T11:38:15.427Z,25.94
2023-08-23T11:40:48.469Z,25.90
2023-08-23T11:43:22.853Z,25.83
2023-08-23T11:45:53.938Z,25.79
2023-08-23T11:48:24.129Z,25.76
2023-08-23T11:50:53.343Z,25.69
2023-08-23T11:53:21.360Z,25.62
2023-08-23T11:55:51.351Z,25.59
2023-08-23T11:58:19.490Z,25.54
2023-08-23T12:00:48.837Z,25.48
2023-08-23T12:03:17.797Z,25.44
2023-08-23T12:05:46.305Z,25.44
2023-08-23T12:08:14.694Z,25.40
2023-08-23T12:10:43.181Z,25.36
2023-08-23T12:13:13.681Z,25.36
2023-08-23T12:15:41.926Z,25.35
2023-08-23T12:18:10.153Z,25.34
2023-08-23T12:20:38.427Z,25.30
2023-08-23T12:23:06.700Z,25.27
2023-08-23T12:25:34.805Z,25.26
2023-08-23T12:28:02.929Z,25.25
2023-08-23T12:30:31.780Z,25.25
2023-08-23T12:32:59.862Z,25.27
2023-08-23T12:35:27.944Z,25.31
2023-08-23T12:37:56.036Z,25.35
2023-08-23T12:40:24.106Z,25.39
2023-08-23T12:42:53.298Z,25.44
2023-08-23T12:45:21.834Z,25.44
2023-08-23T12:47:50.338Z,25.44
2023-08-23T12:50:19.050Z,25.42
2023-08-23T12:52:47.234Z,25.40
2023-08-23T12:55:15.437Z,25.41
2023-08-23T12:57:43.874Z,25.40
2023-08-23T13:00:29.090Z,25.38
2023-08-23T13:02:58.798Z,25.37
2023-08-23T13:05:27.989Z,25.36
2023-08-23T13:07:56.125Z,25.35
2023-08-23T13:10:24.297Z,25.36
2023-08-23T13:12:52.571Z,25.37
2023-08-23T13:15:21.060Z,25.38
2023-08-23T13:17:49.666Z,25.38
2023-08-23T13:20:18.151Z,25.37
2023-08-23T13:22:46.836Z,25.35
2023-08-23T13:25:15.078Z,25.35
2023-08-23T13:27:43.246Z,25.35
2023-08-23T13:30:12.292Z,25.33
2023-08-23T13:32:40.619Z,25.32
2023-08-23T13:35:09.301Z,25.34
2023-08-23T13:37:37.592Z,25.32
2023-08-23T13:40:07.472Z,25.34
2023-08-23T13:42:37.264Z,25.36
2023-08-23T13:45:08.876Z,25.38
2023-08-23T13:47:38.211Z,25.41
2023-08-23T13:50:07.613Z,25.43
2023-08-23T13:52:35.935Z,25.40
2023-08-23T13:55:05.376Z,25.38
2023-08-23T13:57:33.623Z,25.37
2023-08-23T14:00:01.749Z,25.34
2023-08-23T14:02:29.977Z,25.34
2023-08-23T14:04:58.216Z,25.37
2023-08-23T14:07:27.062Z,25.38
2023-08-23T14:09:55.289Z,25.37
2023-08-23T14:12:23.469Z,25.36
2023-08-23T14:14:51.633Z,25.39
2023-08-23T14:17:19.914Z,25.42
2023-08-23T14:19:49.969Z,25.43
2023-08-23T14:22:18.392Z,25.45
2023-08-23T14:24:46.417Z,25.46
2023-08-23T14:27:15.573Z,25.46
2023-08-23T14:29:43.743Z,25.45
2023-08-23T14:32:12.858Z,25.42
2023-08-23T14:34:40.913Z,25.36
2023-08-23T14:37:09.085Z,25.26
2023-08-23T14:39:37.313Z,25.17
2023-08-23T14:42:05.598Z,25.09
2023-08-23T14:44:34.416Z,25.01
2023-08-23T14:47:02.603Z,24.98
2023-08-23T14:49:30.862Z,24.97
2023-08-23T14:51:59.039Z,24.98
2023-08-23T14:54:28.337Z,25.00
2023-08-23T14:56:56.408Z,24.99
2023-08-23T14:59:24.597Z,24.98
2023-08-23T15:01:52.857Z,24.96
2023-08-23T15:04:21.766Z,24.91
2023-08-23T15:06:49.830Z,24.85
2023-08-23T15:09:18.714Z,24.80
2023-08-23T15:11:46.916Z,24.76
2023-08-23T15:14:15.049Z,24.71
2023-08-23T15:16:43.164Z,24.67
2023-08-23T15:19:11.904Z,24.62
2023-08-23T15:21:40.079Z,24.56
2023-08-23T15:24:08.119Z,24.54
2023-08-23T15:26:36.230Z,24.51
2023-08-23T15:29:05.733Z,24.49
2023-08-23T15:31:33.935Z,24.46
2023-08-23T15:34:02.537Z,24.42
2023-08-23T15:36:32.303Z,24.39
2023-08-23T15:39:04.464Z,24.36
2023-08-23T15:41:32.595Z,24.34
2023-08-23T15:44:00.921Z,24.31
2023-08-23T15:46:29.515Z,24.27
2023-08-23T15:48:57.574Z,24.26
2023-08-23T15:51:25.837Z,24.24
2023-08-23T15:53:54.008Z,24.20
2023-08-23T15:56:22.091Z,24.14
2023-08-23T15:58:50.253Z,24.10
2023-08-23T16:01:18.762Z,24.07
2023-08-23T16:03:46.947Z,24.03
2023-08-23T16:06:14.976Z,23.99
2023-08-23T16:08:43.160Z,23.94
2023-08-23T16:11:11.215Z,23.92
2023-08-23T16:13:39.609Z,23.87
2023-08-23T16:16:07.746Z,23.84
2023-08-23T16:18:36.166Z,23.80
2023-08-23T16:21:04.469Z,23.77
2023-08-23T16:23:33.010Z,23.75
2023-08-23T16:26:03.394Z,23.74
2023-08-23T16:28:31.705Z,23.70
2023-08-23T16:30:59.789Z,23.65
2023-08-23T16:33:27.952Z,23.60
2023-08-23T16:35:56.263Z,23.57
2023-08-23T16:38:24.350Z,23.53
2023-08-23T16:40:52.371Z,23.49
2023-08-23T16:43:20.636Z,23.44
2023-08-23T16:45:48.864Z,23.40
2023-08-23T16:48:17.116Z,23.33
2023-08-23T16:50:45.258Z,23.25
2023-08-23T16:53:13.680Z,23.21
2023-08-23T16:55:41.809Z,23.15
2023-08-23T16:58:09.981Z,23.08
2023-08-23T17:00:38.206Z,23.02
2023-08-23T17:03:06.342Z,22.94
2023-08-23T17:05:35.387Z,22.90
2023-08-23T17:08:04.441Z,22.85
2023-08-23T17:10:33.269Z,22.80
2023-08-23T17:13:03.122Z,22.73
2023-08-23T17:15:31.784Z,22.69
2023-08-23T17:18:00.015Z,22.64
2023-08-23T17:20:28.286Z,22.58
2023-08-23T17:22:58.904Z,22.52
2023-08-23T17:25:27.866Z,22.44
2023-08-23T17:28:00.048Z,22.39
2023-08-23T17:30:29.956Z,22.34
2023-08-23T17:32:58.111Z,22.29
2023-08-23T17:35:26.401Z,22.23
2023-08-23T17:37:54.878Z,22.16
2023-08-23T17:40:23.167Z,22.10
2023-08-23T17:42:51.271Z,22.04
2023-08-23T17:45:19.811Z,21.99
2023-08-23T17:47:47.890Z,21.95
2023-08-23T17:50:16.376Z,21.92
2023-08-23T17:52:44.428Z,21.87
2023-08-23T17:55:13.424Z,21.83
2023-08-23T17:57:41.603Z,21.79
2023-08-23T18:00:10.956Z,21.74
2023-08-23T18:02:42.910Z,21.70
2023-08-23T18:05:11.273Z,21.66
2023-08-23T18:07:39.916Z,21.64
2023-08-23T18:10:09.540Z,21.61
2023-08-23T18:12:37.739Z,21.58
2023-08-23T18:15:06.782Z,21.55
2023-08-23T18:17:34.969Z,21.51
2023-08-23T18:20:03.174Z,21.48
2023-08-23T18:22:31.309Z,21.46
2023-08-23T18:24:59.376Z,21.41
2023-08-23T18:27:27.392Z,21.39
2023-08-23T18:29:55.521Z,21.36
2023-08-23T18:32:23.733Z,21.32
2023-08-23T18:34:51.866Z,21.28
2023-08-23T18:37:20.034Z,21.25
2023-08-23T18:39:48.222Z,21.21
2023-08-23T18:42:16.258Z,21.18
2023-08-23T18:44:44.349Z,21.15
2023-08-23T18:47:12.422Z,21.13
2023-08-23T18:49:42.334Z,21.12
2023-08-23T18:52:10.434Z,21.09
2023-08-23T18:54:38.632Z,21.06
2023-08-23T18:57:08.834Z,21.06
2023-08-23T18:59:38.329Z,21.04
2023-08-23T19:02:06.722Z,21.04
2023-08-23T19:04:34.954Z,21.01
2023-08-23T19:07:03.135Z,20.98
2023-08-23T19:09:31.199Z,20.95
2023-08-23T19:11:59.267Z,20.91
2023-08-23T19:14:27.499Z,20.88
2023-08-23T19:16:55.444Z,20.86
2023-08-23T19:19:23.644Z,20.84
2023-08-23T19:21:56.925Z,20.82
2023-08-23T19:24:26.081Z,20.80
2023-08-23T19:26:54.142Z,20.79
2023-08-23T19:29:22.827Z,20.77
2023-08-23T19:32:05.704Z,20.75
2023-08-23T19:34:34.698Z,20.71
2023-08-23T19:37:04.016Z,20.69
2023-08-23T19:39:33.540Z,20.67
2023-08-23T19:42:01.624Z,20.67
2023-08-23T19:44:29.789Z,20.67
2023-08-23T19:46:57.857Z,20.68
2023-08-23T19:49:26.433Z,20.68
2023-08-23T19:51:54.636Z,20.65
2023-08-23T19:54:22.687Z,20.63
2023-08-23T19:56:50.807Z,20.62
2023-08-23T19:59:18.924Z,20.63
2023-08-23T20:01:49.313Z,20.63
2023-08-23T20:04:17.629Z,20.64
2023-08-23T20:06:46.141Z,20.64
2023-08-23T20:09:14.278Z,20.65
2023-08-23T20:11:43.370Z,20.65
2023-08-23T20:14:11.443Z,20.67
2023-08-23T20:16:39.513Z,20.68
2023-08-23T20:19:07.522Z,20.71
2023-08-23T20:21:35.665Z,20.72
2023-08-23T20:24:03.983Z,20.73
2023-08-23T20:26:32.625Z,20.73
2023-08-23T20:29:02.013Z,20.72
2023-08-23T20:31:30.116Z,20.73
2023-08-23T20:33:58.378Z,20.74
2023-08-23T20:36:27.452Z,20.77
2023-08-23T20:38:55.680Z,20.79
2023-08-23T20:41:23.801Z,20.78
2023-08-23T20:43:53.912Z,20.73
2023-08-23T20:46:22.037Z,20.71
2023-08-23T20:48:50.430Z,20.72
2023-08-23T20:51:18.478Z,20.72
2023-08-23T20:53:46.455Z,20.73
2023-08-23T20:56:16.403Z,20.73
2023-08-23T20:58:44.529Z,20.75
2023-08-23T21:01:13.863Z,20.75
2023-08-23T21:03:42.282Z,20.75
2023-08-23T21:06:10.654Z,20.74
2023-08-23T21:08:38.925Z,20.73
2023-08-23T21:11:06.997Z,20.72
2023-08-23T21:13:35.414Z,20.73
2023-08-23T21:16:03.646Z,20.73
2023-08-23T21:18:31.823Z,20.73
2023-08-23T21:20:59.987Z,20.74
2023-08-23T21:23:29.617Z,20.74
2023-08-23T21:25:57.980Z,20.75
2023-08-23T21:28:26.157Z,20.74
2023-08-23T21:30:54.362Z,20.74
2023-08-23T21:33:23.620Z,20.72
2023-08-23T21:35:52.111Z,20.68
2023-08-23T21:38:20.493Z,20.68
2023-08-23T21:40:59.153Z,20.68
2023-08-23T21:43:28.652Z,20.68
2023-08-23T21:45:56.714Z,20.68
2023-08-23T21:48:25.892Z,20.65
2023-08-23T21:50:53.983Z,20.62
2023-08-23T21:53:22.225Z,20.62
2023-08-23T21:55:57.314Z,20.61
2023-08-23T21:58:30.643Z,20.60
2023-08-23T22:01:03.923Z,20.60
2023-08-23T22:03:33.537Z,20.63
2023-08-23T22:06:07.461Z,20.64
2023-08-23T22:08:40.537Z,20.63
2023-08-23T22:11:12.114Z,20.63
2023-08-23T22:13:43.132Z,20.63
2023-08-23T22:16:12.551Z,20.64
2023-08-23T22:18:41.216Z,20.66
2023-08-23T22:21:11.403Z,20.70
2023-08-23T22:23:39.720Z,20.72
2023-08-23T22:26:07.991Z,20.73
2023-08-23T22:28:36.171Z,20.74
2023-08-23T22:31:04.561Z,20.75
2023-08-23T22:33:32.927Z,20.74
2023-08-23T22:36:01.179Z,20.73
2023-08-23T22:38:29.358Z,20.72
2023-08-23T22:40:57.811Z,20.69
2023-08-23T22:43:26.295Z,20.67
2023-08-23T22:45:55.037Z,20.65
2023-08-23T22:48:23.490Z,20.62
2023-08-23T22:50:52.275Z,20.60
2023-08-23T22:53:20.281Z,20.60
2023-08-23T22:55:48.348Z,20.59
2023-08-23T22:58:16.582Z,20.57
2023-08-23T23:00:44.856Z,20.54
2023-08-23T23:03:13.076Z,20.50
2023-08-23T23:05:41.124Z,20.48
2023-08-23T23:08:09.357Z,20.46
2023-08-23T23:10:37.734Z,20.45
2023-08-23T23:13:06.132Z,20.42
2023-08-23T23:15:34.320Z,20.40
2023-08-23T23:18:02.396Z,20.34
2023-08-23T23:20:30.450Z,20.29
2023-08-23T23:22:58.815Z,20.24
2023-08-23T23:25:26.898Z,20.18
2023-08-23T23:27:55.176Z,20.15
2023-08-23T23:30:23.470Z,20.12
2023-08-23T23:32:52.055Z,20.09
2023-08-23T23:35:20.255Z,20.08
2023-08-23T23:37:49.017Z,20.08
2023-08-23T23:40:17.988Z,20.08
2023-08-23T23:42:46.194Z,20.08
2023-08-23T23:45:34.570Z,20.04
2023-08-23T23:48:03.939Z,19.97
2023-08-23T23:50:33.204Z,19.94
2023-08-23T23:53:01.958Z,19.92
2023-08-23T23:55:30.317Z,19.90
2023-08-23T23:57:58.536Z,19.87
